Aeroporto :
LOGIN :

Iscrizione | Disclaimer

   EN    FR    IT 

 










Sommario :    VFR   VFR Marginale   IFR   IFR Intensivo   IFR Molto Intensivo
Visibilità : 
Base nubi : 
>= 8 km
>= 3000ft
5 / 8 km
1000 / 3000 ft
1500m / 5 km
500 / 1000 ft
800 / 1500m
200 / 500 ft
< 800m
< 200 ft
Simboli :   Temporali  Nebbia  Neve Forte  Precipitazioni Forti  Vento > 20 kt
SIGMETs :   Varie  Temporali  Ghiacco  Turbolenza  Onda orograficha  Ceneri Vulcaniche






- Altitudine del aeroporto : 256 ft
- Codice IATA : CFR


LFRK - Caen

ULTIMO METAR :
  • 221600Z AUTO 23014KT 5000 BR OVC008 11/10 Q1026 TEMPO DZ

METARs OBSOLETI :
  • 221530Z AUTO 24016KT 9999 OVC010 11/10 Q1026 TEMPO 4000 DZ
  • 221500Z AUTO 23014KT 9999 OVC011 11/10 Q1026 TEMPO 4000 DZ BKN008
  • 221430Z AUTO 23016KT 6000 BKN008 BKN013 OVC019 11/10 Q1026 TEMPO 4000 DZ
  • 221400Z AUTO 24016KT 7000 OVC011 11/10 Q1027 TEMPO 4000 DZ
  • 221330Z AUTO 23017KT 9999 OVC012 11/09 Q1026 TEMPO 4000 DZ

TAF TAF LFRK
Valido dal 22 a 15 ore il 23 a 00 ore UTC


221400Z 2215/2224 23013KT 9999 OVC013
TEMPO 2215/2224 4000 DZ BKN008
Met : +33 2 31 26 68 11



MetMap, La meteo Aeronautica in un colpo d'occhio ! - Copyright ORBIFLY Dicembre 2007 - Disclaimer

ORBIFLY MET'MAP TEAM :

Programmazione e sviluppo : Alexandra Zaïnal
Concezione : Baudouin d'Aumeries
Aiuto per la programmazione : Marc-Olivier Méhu
Supporto tecnico e logistico : Manuel Goepfert
Aiuto per la traduzione : Arnaldo La Scala

Contatto : metmap@orbifly.com




FONTI E CREDITI :

   NOAA